createdAt,value
2019-06-07T00:00:40.300Z,20.09
2019-06-07T00:05:41.710Z,20.06
2019-06-07T00:10:43.784Z,20.03
2019-06-07T00:15:45.944Z,19.99
2019-06-07T00:20:48.034Z,19.92
2019-06-07T00:25:50.114Z,19.87
2019-06-07T00:30:52.816Z,19.79
2019-06-07T00:35:55.099Z,19.71
2019-06-07T00:40:57.147Z,19.61
2019-06-07T00:45:59.170Z,19.54
2019-06-07T00:51:01.206Z,19.45
2019-06-07T00:56:03.247Z,19.39
2019-06-07T01:01:05.447Z,19.33
2019-06-07T01:06:07.549Z,19.29
2019-06-07T01:11:09.632Z,19.26
2019-06-07T01:16:11.771Z,19.25
2019-06-07T01:21:15.905Z,19.20
2019-06-07T01:26:20.530Z,19.19
2019-06-07T01:31:24.850Z,19.18
2019-06-07T01:36:29.564Z,19.11
2019-06-07T01:41:30.711Z,19.10
2019-06-07T01:46:33.212Z,19.18
2019-06-07T01:51:35.584Z,19.19
2019-06-07T01:56:37.671Z,19.18
2019-06-07T02:01:39.718Z,19.20
2019-06-07T02:06:41.776Z,19.21
2019-06-07T02:11:43.855Z,19.18
2019-06-07T02:16:45.911Z,19.20
2019-06-07T02:21:47.970Z,19.16
2019-06-07T02:26:49.999Z,19.13
2019-06-07T02:31:52.037Z,19.07
2019-06-07T02:36:54.434Z,19.08
2019-06-07T02:41:56.846Z,19.01
2019-06-07T02:46:59.014Z,19.02
2019-06-07T02:52:01.361Z,19.02
2019-06-07T02:57:03.461Z,19.04
2019-06-07T03:02:05.528Z,19.06
2019-06-07T03:07:10.790Z,19.05
2019-06-07T03:12:14.224Z,19.07
2019-06-07T03:17:41.724Z,19.10
2019-06-07T03:22:43.759Z,19.10
2019-06-07T03:27:49.944Z,19.10
2019-06-07T03:32:52.105Z,19.10
2019-06-07T03:37:54.507Z,19.12
2019-06-07T03:42:56.604Z,19.10
2019-06-07T03:47:58.672Z,19.09
2019-06-07T03:53:00.709Z,19.11
2019-06-07T03:58:31.516Z,19.14
2019-06-07T04:03:06.669Z,19.17
2019-06-07T04:08:11.092Z,19.17
2019-06-07T04:13:13.138Z,19.21
2019-06-07T04:18:15.268Z,19.25
2019-06-07T04:23:27.855Z,19.22
2019-06-07T04:28:21.380Z,19.29
2019-06-07T04:33:24.193Z,19.31
2019-06-07T04:38:26.556Z,19.35
2019-06-07T04:43:31.464Z,19.38
2019-06-07T04:48:41.377Z,19.39
2019-06-07T04:53:43.078Z,19.38
2019-06-07T04:58:44.525Z,19.48
2019-06-07T05:03:46.558Z,19.55
2019-06-07T05:08:48.621Z,19.52
2019-06-07T05:13:50.677Z,19.57
2019-06-07T05:18:52.709Z,19.62
2019-06-07T05:24:06.602Z,19.66
2019-06-07T05:28:58.813Z,19.74
2019-06-07T05:34:00.864Z,19.73
2019-06-07T05:39:04.884Z,19.86
2019-06-07T05:44:12.839Z,19.95
2019-06-07T05:49:10.936Z,20.01
2019-06-07T05:54:12.994Z,20.07
2019-06-07T05:59:15.071Z,20.18
2019-06-07T06:04:19.642Z,20.27
2019-06-07T06:09:21.666Z,20.34
2019-06-07T06:14:23.704Z,20.44
2019-06-07T06:19:25.775Z,20.54
2019-06-07T06:24:28.868Z,20.71
2019-06-07T06:29:30.902Z,21.00
2019-06-07T06:34:40.158Z,21.19
2019-06-07T06:39:42.039Z,21.32
2019-06-07T06:44:46.411Z,21.40
2019-06-07T06:49:49.993Z,21.59
2019-06-07T06:55:00.156Z,21.77
2019-06-07T06:59:57.175Z,22.21
2019-06-07T07:04:59.235Z,22.84
2019-06-07T07:10:03.160Z,23.01
2019-06-07T07:15:06.664Z,23.05
2019-06-07T07:20:08.810Z,23.12
2019-06-07T07:25:11.192Z,23.15
2019-06-07T07:30:36.066Z,23.51
2019-06-07T07:35:17.986Z,23.63
2019-06-07T07:40:56.178Z,23.81
2019-06-07T07:45:23.987Z,23.66
2019-06-07T07:50:26.086Z,24.09
2019-06-07T07:55:28.221Z,24.65
2019-06-07T08:00:52.571Z,24.50
2019-06-07T08:05:42.921Z,24.28
2019-06-07T08:10:38.904Z,24.03
2019-06-07T08:15:40.958Z,24.36
2019-06-07T08:21:04.826Z,24.18
2019-06-07T08:25:47.183Z,24.20
2019-06-07T08:30:55.017Z,24.48
2019-06-07T08:41:10.734Z,24.76
2019-06-07T08:46:06.841Z,24.84
2019-06-07T08:51:08.184Z,24.80
2019-06-07T08:56:10.906Z,24.59
2019-06-07T09:01:13.103Z,24.49
2019-06-07T09:07:01.260Z,24.36
2019-06-07T09:11:19.104Z,24.28
2019-06-07T09:16:21.151Z,24.20
2019-06-07T09:21:23.237Z,24.17
2019-06-07T09:26:25.581Z,24.31
2019-06-07T09:31:51.073Z,24.24
2019-06-07T09:36:31.562Z,24.25
2019-06-07T09:41:46.957Z,24.37
2019-06-07T09:46:37.668Z,24.15
2019-06-07T09:51:39.797Z,24.20
2019-06-07T09:56:41.843Z,23.91
2019-06-07T10:01:43.891Z,23.78
2019-06-07T10:06:46.144Z,23.91
2019-06-07T10:11:48.334Z,24.08
2019-06-07T10:16:50.397Z,24.05
2019-06-07T10:21:52.431Z,24.24
2019-06-07T10:26:54.490Z,24.31
2019-06-07T10:31:56.622Z,24.49
2019-06-07T10:36:58.758Z,24.33
2019-06-07T10:42:00.993Z,24.44
2019-06-07T10:47:04.008Z,24.64
2019-06-07T10:52:07.998Z,24.74
2019-06-07T10:57:12.889Z,24.68
2019-06-07T11:02:14.282Z,24.57
2019-06-07T11:07:16.462Z,24.43
2019-06-07T11:12:19.270Z,24.44
2019-06-07T11:17:21.282Z,24.55
2019-06-07T11:22:26.085Z,24.73
2019-06-07T11:27:28.157Z,24.51
2019-06-07T11:32:30.731Z,24.47
2019-06-07T11:37:33.035Z,24.70
2019-06-07T11:42:35.127Z,24.83
2019-06-07T11:47:37.547Z,25.01
2019-06-07T11:52:39.574Z,25.23
2019-06-07T11:57:41.645Z,25.38
2019-06-07T12:02:43.707Z,25.62
2019-06-07T12:07:48.779Z,25.63
2019-06-07T12:12:50.809Z,25.74
2019-06-07T12:17:52.866Z,25.82
2019-06-07T12:22:54.904Z,25.61
2019-06-07T12:27:58.296Z,25.34
2019-06-07T12:33:00.342Z,25.25
2019-06-07T12:38:02.478Z,25.22
2019-06-07T12:43:04.527Z,25.35
2019-06-07T12:48:06.884Z,25.39
2019-06-07T12:53:09.316Z,25.39
2019-06-07T12:58:11.342Z,25.33
2019-06-07T13:03:14.231Z,25.39
2019-06-07T13:08:17.613Z,25.46
2019-06-07T13:13:20.986Z,25.48
2019-06-07T13:18:25.198Z,25.56
2019-06-07T13:23:28.900Z,25.27
2019-06-07T13:28:31.894Z,25.25
2019-06-07T13:33:38.670Z,25.23
2019-06-07T13:38:38.215Z,25.36
2019-06-07T13:43:40.377Z,25.44
2019-06-07T13:48:42.485Z,25.37
2019-06-07T13:53:44.580Z,25.32
2019-06-07T13:58:48.638Z,25.34
2019-06-07T14:03:50.830Z,25.39
2019-06-07T14:08:54.787Z,25.44
2019-06-07T14:13:58.734Z,25.45
2019-06-07T14:19:00.834Z,25.48
2019-06-07T14:24:03.103Z,25.48
2019-06-07T14:29:05.196Z,25.46
2019-06-07T14:34:07.341Z,25.49
2019-06-07T14:39:09.477Z,25.47
2019-06-07T14:44:11.534Z,25.46
2019-06-07T14:49:13.737Z,25.59
2019-06-07T14:54:15.902Z,25.65
2019-06-07T14:59:18.382Z,25.74
2019-06-07T15:04:20.448Z,25.71
2019-06-07T15:09:22.544Z,25.79
2019-06-07T15:14:24.830Z,25.82
2019-06-07T15:19:29.055Z,25.87
2019-06-07T15:24:35.354Z,25.88
2019-06-07T15:29:35.973Z,26.00
2019-06-07T15:34:38.456Z,25.94
2019-06-07T15:39:40.846Z,25.97
2019-06-07T15:44:42.887Z,26.05
2019-06-07T15:49:46.304Z,26.02
2019-06-07T15:54:48.393Z,26.01
2019-06-07T15:59:50.495Z,25.96
2019-06-07T16:04:57.186Z,26.03
2019-06-07T16:09:59.376Z,26.07
2019-06-07T16:15:01.687Z,26.02
2019-06-07T16:20:05.298Z,26.11
2019-06-07T16:25:09.565Z,26.12
2019-06-07T16:30:12.493Z,26.07
2019-06-07T16:35:23.371Z,26.62
2019-06-07T16:40:55.776Z,26.41
2019-06-07T16:46:03.370Z,26.31
2019-06-07T16:51:07.905Z,26.23
2019-06-07T16:56:10.112Z,26.27
2019-06-07T17:01:12.386Z,26.23
2019-06-07T17:06:17.482Z,26.17
2019-06-07T17:11:19.595Z,26.26
2019-06-07T17:16:24.405Z,26.23
2019-06-07T17:21:26.496Z,26.29
2019-06-07T17:26:28.607Z,26.31
2019-06-07T17:31:30.693Z,26.31
2019-06-07T17:36:32.722Z,26.71
2019-06-07T17:41:50.674Z,26.45
2019-06-07T17:46:39.367Z,26.38
2019-06-07T17:51:41.768Z,26.32
2019-06-07T17:56:44.559Z,26.29
2019-06-07T18:02:06.747Z,26.22
2019-06-07T18:06:53.624Z,26.16
2019-06-07T18:11:56.310Z,26.09
2019-06-07T18:16:59.019Z,26.04
2019-06-07T18:22:04.124Z,25.92
2019-06-07T18:27:07.221Z,25.92
2019-06-07T18:32:12.660Z,25.94
2019-06-07T18:37:13.484Z,25.89
2019-06-07T18:42:15.527Z,25.83
2019-06-07T18:47:17.590Z,25.77
2019-06-07T18:52:24.473Z,25.72
2019-06-07T18:57:26.527Z,25.64
2019-06-07T19:02:28.633Z,25.61
2019-06-07T19:07:30.711Z,25.57
2019-06-07T19:12:34.348Z,25.51
2019-06-07T19:17:39.423Z,25.44
2019-06-07T19:22:41.581Z,25.33
2019-06-07T19:27:43.682Z,25.33
2019-06-07T19:32:45.803Z,25.22
2019-06-07T19:37:47.897Z,25.14
2019-06-07T19:42:49.973Z,25.17
2019-06-07T19:47:52.385Z,25.07
2019-06-07T19:52:55.242Z,25.03
2019-06-07T19:57:57.589Z,24.92
2019-06-07T20:02:59.984Z,24.80
2019-06-07T20:08:02.816Z,24.73
2019-06-07T20:13:05.310Z,24.71
2019-06-07T20:18:07.763Z,24.72
2019-06-07T20:23:10.061Z,24.61
2019-06-07T20:28:12.182Z,24.54
2019-06-07T20:33:14.262Z,24.48
2019-06-07T20:38:16.278Z,24.35
2019-06-07T20:43:20.671Z,24.32
2019-06-07T20:48:22.735Z,24.20
2019-06-07T20:53:24.976Z,24.11
2019-06-07T20:58:27.022Z,24.04
2019-06-07T21:03:29.085Z,23.92
2019-06-07T21:08:31.153Z,23.83
2019-06-07T21:13:33.186Z,23.75
2019-06-07T21:18:35.250Z,23.73
2019-06-07T21:23:37.414Z,23.63
2019-06-07T21:28:39.934Z,23.60
2019-06-07T21:33:42.959Z,23.56
2019-06-07T21:38:44.995Z,23.62
2019-06-07T21:43:47.007Z,23.53
2019-06-07T21:48:49.043Z,23.47
2019-06-07T21:53:51.101Z,23.38
2019-06-07T21:58:53.330Z,23.38
2019-06-07T22:03:55.373Z,23.28
2019-06-07T22:08:57.423Z,23.23
2019-06-07T22:13:59.560Z,23.16
2019-06-07T22:19:01.647Z,23.12
2019-06-07T22:24:04.794Z,23.14
2019-06-07T22:29:08.157Z,23.19
2019-06-07T22:34:10.712Z,23.28
2019-06-07T22:39:13.942Z,23.21
2019-06-07T22:44:16.114Z,23.14
2019-06-07T22:49:19.517Z,22.89
2019-06-07T22:54:21.969Z,22.79
2019-06-07T22:59:24.056Z,22.83
2019-06-07T23:04:26.095Z,22.87
2019-06-07T23:09:28.126Z,22.68
2019-06-07T23:14:30.147Z,22.68
2019-06-07T23:19:32.191Z,22.57
2019-06-07T23:24:34.112Z,22.54
2019-06-07T23:29:36.182Z,22.40
2019-06-07T23:34:38.237Z,22.27
2019-06-07T23:39:40.255Z,22.28
2019-06-07T23:44:42.508Z,22.09
2019-06-07T23:49:44.583Z,22.09
2019-06-07T23:54:46.628Z,22.01
2019-06-07T23:59:48.661Z,21.97
